Time;durP1;ratioP1;P1;durP2;ratioP2;P2;SDS_P1;SDS_P2;PMS_P1;PMS_P2;Temp;Humidity;BMP_temperature;BMP_pressure;BME280_temperature;BME280_humidity;BME280_pressure;Samples;Min_cycle;Max_cycle;Signal;HPM_P1;HPM_P2
2023/12/15 13:33:53;;;;;;;6.75;3.70;;;;;;;17.69;54.00;103419.03;5029992;27;98082;-71
2023/12/15 13:36:19;;;;;;;9.27;4.07;;;;;;;18.03;53.01;103417.22;5015417;27;97554;-75
2023/12/15 13:38:46;;;;;;;5.85;3.55;;;;;;;18.31;52.61;103423.13;4992867;28;97486;-76
2023/12/15 13:41:12;;;;;;;7.07;4.20;;;;;;;18.56;52.31;103424.53;4987432;28;107943;-80
2023/12/15 13:43:37;;;;;;;8.63;4.00;;;;;;;18.78;51.43;103420.53;4998496;28;97931;-80
2023/12/15 13:46:06;;;;;;;7.32;3.88;;;;;;;18.95;51.00;103419.16;5004808;28;96687;-80
2023/12/15 13:48:32;;;;;;;9.32;4.18;;;;;;;19.08;50.98;103422.91;5000215;28;98728;-81
2023/12/15 13:50:58;;;;;;;8.80;4.22;;;;;;;19.23;50.61;103418.75;4999330;28;96864;-79
2023/12/15 13:53:25;;;;;;;5.93;3.78;;;;;;;19.29;50.25;103422.41;4987281;28;98742;-78
2023/12/15 13:55:51;;;;;;;7.70;3.97;;;;;;;19.37;49.93;103428.69;5003308;28;97996;-77
2023/12/15 13:58:16;;;;;;;6.82;3.53;;;;;;;19.44;49.82;103426.16;4995071;28;109734;-81
2023/12/15 14:00:42;;;;;;;7.03;3.92;;;;;;;19.48;49.61;103426.22;5005219;28;96874;-80
2023/12/15 14:03:07;;;;;;;7.05;3.95;;;;;;;19.54;49.26;103434.28;5000829;28;97006;-80
2023/12/15 14:05:33;;;;;;;7.10;4.07;;;;;;;19.58;49.20;103440.53;4998091;28;109992;-79
2023/12/15 14:07:58;;;;;;;10.23;4.18;;;;;;;19.58;49.31;103441.41;4991961;28;97271;-79
2023/12/15 14:10:24;;;;;;;9.25;4.20;;;;;;;19.59;48.91;103448.50;4995632;28;128091;-79
2023/12/15 14:12:50;;;;;;;6.47;3.33;;;;;;;19.64;49.13;103443.25;4997548;28;111613;-79
2023/12/15 14:15:16;;;;;;;8.88;4.20;;;;;;;19.65;48.84;103445.03;5011241;28;97369;-78
2023/12/15 14:18:08;;;;;;;10.65;4.28;;;;;;;19.62;49.22;103449.41;5104707;27;96659;-75
2023/12/15 14:20:34;;;;;;;8.02;3.88;;;;;;;19.62;48.49;103445.00;5046372;27;110314;-75
2023/12/15 14:22:59;;;;;;;6.80;4.15;;;;;;;19.59;48.49;103445.84;5090092;27;125665;-76
2023/12/15 14:25:26;;;;;;;9.15;4.10;;;;;;;19.62;48.52;103463.53;5060745;27;117542;-75
2023/12/15 14:27:52;;;;;;;7.10;3.17;;;;;;;19.62;48.41;103462.63;5055222;27;97206;-76
2023/12/15 14:30:18;;;;;;;7.03;3.30;;;;;;;19.62;48.26;103471.47;5049776;27;96932;-75
2023/12/15 14:32:43;;;;;;;5.95;4.20;;;;;;;19.63;48.40;103478.56;5048651;27;98520;-75
2023/12/15 14:35:09;;;;;;;7.13;4.05;;;;;;;19.64;48.13;103482.09;5053513;27;108942;-76
2023/12/15 14:37:35;;;;;;;8.13;4.13;;;;;;;19.67;48.24;103490.09;5076967;27;97222;-75
2023/12/15 14:40:01;;;;;;;6.10;4.13;;;;;;;19.64;48.23;103500.63;5055707;27;96909;-75
2023/12/15 14:42:26;;;;;;;7.43;4.30;;;;;;;19.67;48.22;103501.56;5059898;27;97271;-75
2023/12/15 14:44:51;;;;;;;7.30;3.90;;;;;;;19.68;48.05;103499.78;5054399;27;97758;-74
2023/12/15 14:47:18;;;;;;;8.43;4.45;;;;;;;19.65;48.03;103497.13;5036283;27;97224;-75
2023/12/15 14:49:43;;;;;;;6.20;3.80;;;;;;;19.64;48.16;103508.56;5071721;27;96896;-76
2023/12/15 14:52:09;;;;;;;7.43;3.97;;;;;;;19.67;48.00;103512.16;5084572;27;126881;-75
2023/12/15 14:54:35;;;;;;;7.20;4.07;;;;;;;19.69;48.09;103504.25;5047015;27;126517;-74
2023/12/15 14:57:00;;;;;;;6.85;3.50;;;;;;;19.71;47.71;103507.78;5084613;27;97171;-75
2023/12/15 14:59:26;;;;;;;8.05;3.58;;;;;;;19.69;47.78;103491.88;5054936;27;112504;-74
2023/12/15 15:01:53;;;;;;;7.65;3.88;;;;;;;19.71;47.96;103497.22;5054797;27;97184;-74
2023/12/15 15:04:21;;;;;;;7.57;4.05;;;;;;;19.72;47.45;103491.06;5028277;27;99399;-75
2023/12/15 15:06:49;;;;;;;6.95;3.67;;;;;;;19.72;47.78;103501.66;5051175;27;96817;-76
2023/12/15 15:09:15;;;;;;;7.93;4.30;;;;;;;19.70;47.52;103498.97;5038800;27;97026;-75
